sensor_id;sensor_type;location;lat;lon;timestamp;temperature;humidity
15821;DHT22;8011;51.650;7.240;2023-01-09T04:01:49;7.30;99.90
15821;DHT22;8011;51.650;7.240;2023-01-09T04:04:15;7.30;99.90
15821;DHT22;8011;51.650;7.240;2023-01-09T04:06:41;7.30;99.90
15821;DHT22;8011;51.650;7.240;2023-01-09T04:09:09;7.30;99.90
15821;DHT22;8011;51.650;7.240;2023-01-09T04:11:35;7.30;99.90
15821;DHT22;8011;51.650;7.240;2023-01-09T04:14:01;7.30;99.90
15821;DHT22;8011;51.650;7.240;2023-01-09T04:16:26;7.30;99.90
15821;DHT22;8011;51.650;7.240;2023-01-09T04:18:52;7.20;99.90
15821;DHT22;8011;51.650;7.240;2023-01-09T04:21:18;7.30;99.90
15821;DHT22;8011;51.650;7.240;2023-01-09T04:23:43;7.30;99.90
15821;DHT22;8011;51.650;7.240;2023-01-09T04:26:09;7.30;99.90
15821;DHT22;8011;51.650;7.240;2023-01-09T04:28:35;7.20;99.90
15821;DHT22;8011;51.650;7.240;2023-01-09T04:31:01;7.30;99.90
15821;DHT22;8011;51.650;7.240;2023-01-09T04:33:27;7.20;99.90
15821;DHT22;8011;51.650;7.240;2023-01-09T04:35:53;7.20;99.90
15821;DHT22;8011;51.650;7.240;2023-01-09T04:38:19;7.30;99.90
15821;DHT22;8011;51.650;7.240;2023-01-09T04:40:48;7.30;99.90
15821;DHT22;8011;51.650;7.240;2023-01-09T04:43:14;7.20;99.90
15821;DHT22;8011;51.650;7.240;2023-01-09T04:45:40;7.20;99.90
15821;DHT22;8011;51.650;7.240;2023-01-09T04:48:05;7.20;99.90
15821;DHT22;8011;51.650;7.240;2023-01-09T04:50:31;7.20;99.90
15821;DHT22;8011;51.650;7.240;2023-01-09T04:52:57;7.20;99.90
15821;DHT22;8011;51.650;7.240;2023-01-09T04:55:22;7.10;99.90
15821;DHT22;8011;51.650;7.240;2023-01-09T04:57:48;7.00;99.90
15821;DHT22;8011;51.650;7.240;2023-01-09T05:00:14;7.00;99.90
15821;DHT22;8011;51.650;7.240;2023-01-09T05:02:40;7.00;99.90
15821;DHT22;8011;51.650;7.240;2023-01-09T05:05:09;6.90;99.90
15821;DHT22;8011;51.650;7.240;2023-01-09T05:07:35;6.90;99.90
15821;DHT22;8011;51.650;7.240;2023-01-09T05:10:01;6.80;99.90
15821;DHT22;8011;51.650;7.240;2023-01-09T05:12:27;6.90;99.90
15821;DHT22;8011;51.650;7.240;2023-01-09T05:14:53;6.80;99.90
15821;DHT22;8011;51.650;7.240;2023-01-09T05:17:18;6.80;99.90
15821;DHT22;8011;51.650;7.240;2023-01-09T05:19:47;6.80;99.90
15821;DHT22;8011;51.650;7.240;2023-01-09T05:22:12;6.70;99.90
15821;DHT22;8011;51.650;7.240;2023-01-09T05:24:38;6.60;99.90
15821;DHT22;8011;51.650;7.240;2023-01-09T05:27:04;6.60;99.90
15821;DHT22;8011;51.650;7.240;2023-01-09T05:29:30;6.60;99.90
15821;DHT22;8011;51.650;7.240;2023-01-09T05:31:56;6.70;99.90
15821;DHT22;8011;51.650;7.240;2023-01-09T05:34:21;6.70;99.90
15821;DHT22;8011;51.650;7.240;2023-01-09T05:36:47;6.60;99.90
15821;DHT22;8011;51.650;7.240;2023-01-09T05:39:13;6.70;99.90
15821;DHT22;8011;51.650;7.240;2023-01-09T05:41:39;6.60;99.90
15821;DHT22;8011;51.650;7.240;2023-01-09T05:44:05;6.60;99.90
15821;DHT22;8011;51.650;7.240;2023-01-09T05:46:31;6.60;99.90
15821;DHT22;8011;51.650;7.240;2023-01-09T05:48:57;6.60;99.90
15821;DHT22;8011;51.650;7.240;2023-01-09T05:51:22;6.70;99.90
15821;DHT22;8011;51.650;7.240;2023-01-09T05:53:48;6.70;99.90
15821;DHT22;8011;51.650;7.240;2023-01-09T05:56:14;6.60;99.90
15821;DHT22;8011;51.650;7.240;2023-01-09T05:58:42;6.70;99.90
15821;DHT22;8011;51.650;7.240;2023-01-09T06:01:08;6.70;99.90
15821;DHT22;8011;51.650;7.240;2023-01-09T06:03:36;6.70;99.90
15821;DHT22;8011;51.650;7.240;2023-01-09T06:06:02;6.70;99.90
15821;DHT22;8011;51.650;7.240;2023-01-09T06:08:27;6.80;99.90
15821;DHT22;8011;51.650;7.240;2023-01-09T06:10:53;6.80;99.90
15821;DHT22;8011;51.650;7.240;2023-01-09T06:13:19;6.80;99.90
15821;DHT22;8011;51.650;7.240;2023-01-09T06:15:46;6.80;99.90
15821;DHT22;8011;51.650;7.240;2023-01-09T06:18:12;6.80;99.90
15821;DHT22;8011;51.650;7.240;2023-01-09T06:20:38;6.80;99.90
15821;DHT22;8011;51.650;7.240;2023-01-09T06:23:04;6.80;99.90
15821;DHT22;8011;51.650;7.240;2023-01-09T06:25:30;6.80;99.90
15821;DHT22;8011;51.650;7.240;2023-01-09T06:27:55;6.90;99.90
15821;DHT22;8011;51.650;7.240;2023-01-09T06:30:21;6.90;99.90
15821;DHT22;8011;51.650;7.240;2023-01-09T06:32:48;6.90;99.90
15821;DHT22;8011;51.650;7.240;2023-01-09T06:35:14;6.90;99.90
15821;DHT22;8011;51.650;7.240;2023-01-09T06:37:40;6.90;99.90
15821;DHT22;8011;51.650;7.240;2023-01-09T06:40:06;7.00;99.90
15821;DHT22;8011;51.650;7.240;2023-01-09T06:42:32;7.00;99.90
15821;DHT22;8011;51.650;7.240;2023-01-09T06:44:57;7.00;99.90
15821;DHT22;8011;51.650;7.240;2023-01-09T06:47:23;6.90;99.90
15821;DHT22;8011;51.650;7.240;2023-01-09T06:49:48;6.80;99.90
15821;DHT22;8011;51.650;7.240;2023-01-09T06:52:14;6.80;99.90
15821;DHT22;8011;51.650;7.240;2023-01-09T06:54:40;6.80;99.90
15821;DHT22;8011;51.650;7.240;2023-01-09T06:57:05;6.80;99.90
15821;DHT22;8011;51.650;7.240;2023-01-09T06:59:31;6.80;99.90
15821;DHT22;8011;51.650;7.240;2023-01-09T07:01:57;6.80;99.90
15821;DHT22;8011;51.650;7.240;2023-01-09T07:04:22;6.70;99.90
15821;DHT22;8011;51.650;7.240;2023-01-09T07:06:48;6.80;99.90
15821;DHT22;8011;51.650;7.240;2023-01-09T07:09:14;6.70;99.90
15821;DHT22;8011;51.650;7.240;2023-01-09T07:11:40;6.70;99.90
15821;DHT22;8011;51.650;7.240;2023-01-09T07:14:08;6.80;99.90
15821;DHT22;8011;51.650;7.240;2023-01-09T07:16:34;6.80;99.90
15821;DHT22;8011;51.650;7.240;2023-01-09T07:19:00;6.80;99.90
15821;DHT22;8011;51.650;7.240;2023-01-09T07:21:26;6.80;99.90
15821;DHT22;8011;51.650;7.240;2023-01-09T07:23:52;6.80;99.90
15821;DHT22;8011;51.650;7.240;2023-01-09T07:26:17;6.70;99.90
15821;DHT22;8011;51.650;7.240;2023-01-09T07:28:46;6.70;99.90
15821;DHT22;8011;51.650;7.240;2023-01-09T07:31:11;6.70;99.90
15821;DHT22;8011;51.650;7.240;2023-01-09T07:33:37;6.70;99.90
15821;DHT22;8011;51.650;7.240;2023-01-09T07:36:03;6.70;99.90
15821;DHT22;8011;51.650;7.240;2023-01-09T07:38:29;6.80;99.90
15821;DHT22;8011;51.650;7.240;2023-01-09T07:40:56;6.80;99.90
15821;DHT22;8011;51.650;7.240;2023-01-09T07:43:22;6.80;99.90
15821;DHT22;8011;51.650;7.240;2023-01-09T07:45:48;6.80;99.90
15821;DHT22;8011;51.650;7.240;2023-01-09T07:48:13;6.90;99.90
15821;DHT22;8011;51.650;7.240;2023-01-09T07:50:39;6.80;99.90
15821;DHT22;8011;51.650;7.240;2023-01-09T07:53:05;6.80;99.90
15821;DHT22;8011;51.650;7.240;2023-01-09T07:55:31;6.90;99.90
15821;DHT22;8011;51.650;7.240;2023-01-09T07:57:56;6.90;99.90
15821;DHT22;8011;51.650;7.240;2023-01-09T08:00:22;6.90;99.90
15821;DHT22;8011;51.650;7.240;2023-01-09T08:02:52;6.90;99.90
15821;DHT22;8011;51.650;7.240;2023-01-09T08:05:18;6.90;99.90
15821;DHT22;8011;51.650;7.240;2023-01-09T08:07:47;6.90;99.90
15821;DHT22;8011;51.650;7.240;2023-01-09T08:10:18;7.00;99.90
15821;DHT22;8011;51.650;7.240;2023-01-09T08:12:47;7.00;99.90
15821;DHT22;8011;51.650;7.240;2023-01-09T08:15:14;7.00;99.90
15821;DHT22;8011;51.650;7.240;2023-01-09T08:17:41;7.00;99.90
15821;DHT22;8011;51.650;7.240;2023-01-09T08:20:10;7.10;99.90
15821;DHT22;8011;51.650;7.240;2023-01-09T08:22:40;7.10;99.90
15821;DHT22;8011;51.650;7.240;2023-01-09T08:25:07;7.10;99.90
15821;DHT22;8011;51.650;7.240;2023-01-09T08:27:33;7.20;99.90
15821;DHT22;8011;51.650;7.240;2023-01-09T08:29:58;7.20;99.90
15821;DHT22;8011;51.650;7.240;2023-01-09T08:32:24;7.20;99.90
15821;DHT22;8011;51.650;7.240;2023-01-09T08:34:50;7.10;99.90
15821;DHT22;8011;51.650;7.240;2023-01-09T08:37:22;7.10;99.90
15821;DHT22;8011;51.650;7.240;2023-01-09T08:39:48;7.10;99.90
15821;DHT22;8011;51.650;7.240;2023-01-09T08:42:14;7.20;99.90
15821;DHT22;8011;51.650;7.240;2023-01-09T08:44:57;7.20;99.90
15821;DHT22;8011;51.650;7.240;2023-01-09T08:47:42;7.20;99.90
15821;DHT22;8011;51.650;7.240;2023-01-09T08:50:08;7.10;99.90
15821;DHT22;8011;51.650;7.240;2023-01-09T08:52:34;7.20;99.90
15821;DHT22;8011;51.650;7.240;2023-01-09T08:54:59;7.10;99.90
15821;DHT22;8011;51.650;7.240;2023-01-09T08:57:25;7.00;99.90
15821;DHT22;8011;51.650;7.240;2023-01-09T08:59:51;7.10;99.90
15821;DHT22;8011;51.650;7.240;2023-01-09T09:02:16;7.10;99.90
15821;DHT22;8011;51.650;7.240;2023-01-09T09:04:45;7.10;99.90
15821;DHT22;8011;51.650;7.240;2023-01-09T09:07:12;7.10;99.90
15821;DHT22;8011;51.650;7.240;2023-01-09T09:09:38;7.10;99.90
15821;DHT22;8011;51.650;7.240;2023-01-09T09:12:04;7.00;99.90
15821;DHT22;8011;51.650;7.240;2023-01-09T09:14:30;7.00;99.90
15821;DHT22;8011;51.650;7.240;2023-01-09T09:17:14;7.00;99.90
15821;DHT22;8011;51.650;7.240;2023-01-09T09:19:40;7.00;99.90
15821;DHT22;8011;51.650;7.240;2023-01-09T09:22:08;7.00;99.90
15821;DHT22;8011;51.650;7.240;2023-01-09T09:24:34;7.00;99.90
15821;DHT22;8011;51.650;7.240;2023-01-09T09:26:59;7.00;99.90
15821;DHT22;8011;51.650;7.240;2023-01-09T09:29:25;7.00;99.90
15821;DHT22;8011;51.650;7.240;2023-01-09T09:31:51;7.00;99.90
15821;DHT22;8011;51.650;7.240;2023-01-09T09:34:16;7.10;99.90
15821;DHT22;8011;51.650;7.240;2023-01-09T09:36:43;7.10;99.90
15821;DHT22;8011;51.650;7.240;2023-01-09T09:39:08;7.10;99.90
15821;DHT22;8011;51.650;7.240;2023-01-09T09:44:37;7.20;99.90
15821;DHT22;8011;51.650;7.240;2023-01-09T09:47:30;7.20;99.90
15821;DHT22;8011;51.650;7.240;2023-01-09T09:55:29;7.20;99.90
15821;DHT22;8011;51.650;7.240;2023-01-09T09:57:58;7.20;99.90
15821;DHT22;8011;51.650;7.240;2023-01-09T10:00:24;7.20;99.90
15821;DHT22;8011;51.650;7.240;2023-01-09T10:02:53;7.20;99.90
15821;DHT22;8011;51.650;7.240;2023-01-09T10:05:31;7.20;99.90
15821;DHT22;8011;51.650;7.240;2023-01-09T10:08:18;7.30;99.90
15821;DHT22;8011;51.650;7.240;2023-01-09T10:10:54;7.30;99.90
15821;DHT22;8011;51.650;7.240;2023-01-09T10:13:23;7.40;99.90
15821;DHT22;8011;51.650;7.240;2023-01-09T10:19:01;7.40;99.90
15821;DHT22;8011;51.650;7.240;2023-01-09T10:21:38;7.50;99.90
15821;DHT22;8011;51.650;7.240;2023-01-09T10:24:16;7.50;99.90
15821;DHT22;8011;51.650;7.240;2023-01-09T10:26:51;7.50;99.90
15821;DHT22;8011;51.650;7.240;2023-01-09T10:37:21;7.80;99.90
15821;DHT22;8011;51.650;7.240;2023-01-09T10:39:58;7.80;99.90
15821;DHT22;8011;51.650;7.240;2023-01-09T10:45:22;7.90;99.90
15821;DHT22;8011;51.650;7.240;2023-01-09T10:47:48;8.00;99.90
15821;DHT22;8011;51.650;7.240;2023-01-09T10:50:23;8.00;99.90
15821;DHT22;8011;51.650;7.240;2023-01-09T10:52:51;8.00;99.90
15821;DHT22;8011;51.650;7.240;2023-01-09T10:57:57;8.10;99.90
15821;DHT22;8011;51.650;7.240;2023-01-09T11:00:24;8.10;99.90
15821;DHT22;8011;51.650;7.240;2023-01-09T11:02:51;8.10;99.90
15821;DHT22;8011;51.650;7.240;2023-01-09T11:05:27;8.10;99.90
15821;DHT22;8011;51.650;7.240;2023-01-09T11:08:18;8.10;99.90
15821;DHT22;8011;51.650;7.240;2023-01-09T11:10:54;8.10;99.90
15821;DHT22;8011;51.650;7.240;2023-01-09T11:18:30;8.10;99.90
15821;DHT22;8011;51.650;7.240;2023-01-09T11:21:24;8.10;99.90
15821;DHT22;8011;51.650;7.240;2023-01-09T11:23:52;8.20;99.90
15821;DHT22;8011;51.650;7.240;2023-01-09T11:26:26;8.10;99.90
15821;DHT22;8011;51.650;7.240;2023-01-09T11:29:05;8.10;99.90
15821;DHT22;8011;51.650;7.240;2023-01-09T11:31:37;8.10;99.90
15821;DHT22;8011;51.650;7.240;2023-01-09T11:34:15;8.10;99.90
15821;DHT22;8011;51.650;7.240;2023-01-09T11:36:42;8.10;99.90
15821;DHT22;8011;51.650;7.240;2023-01-09T11:39:23;8.10;99.90
15821;DHT22;8011;51.650;7.240;2023-01-09T11:42:04;8.10;99.90
15821;DHT22;8011;51.650;7.240;2023-01-09T11:44:31;8.10;99.90
15821;DHT22;8011;51.650;7.240;2023-01-09T11:46:58;8.10;99.90
15821;DHT22;8011;51.650;7.240;2023-01-09T11:49:30;8.00;99.90
15821;DHT22;8011;51.650;7.240;2023-01-09T11:52:20;8.10;99.90
15821;DHT22;8011;51.650;7.240;2023-01-09T11:57:12;8.00;99.90
15821;DHT22;8011;51.650;7.240;2023-01-09T11:59:38;8.00;99.90
15821;DHT22;8011;51.650;7.240;2023-01-09T12:05:10;8.10;99.90
15821;DHT22;8011;51.650;7.240;2023-01-09T12:25:21;8.00;99.90
15821;DHT22;8011;51.650;7.240;2023-01-09T12:36:08;8.10;99.90
15821;DHT22;8011;51.650;7.240;2023-01-09T12:38:47;8.10;99.90
15821;DHT22;8011;51.650;7.240;2023-01-09T12:52:31;8.00;99.90
15821;DHT22;8011;51.650;7.240;2023-01-09T12:55:01;8.00;99.90
15821;DHT22;8011;51.650;7.240;2023-01-09T12:57:35;8.00;99.90
15821;DHT22;8011;51.650;7.240;2023-01-09T13:02:40;7.90;99.90
15821;DHT22;8011;51.650;7.240;2023-01-09T13:05:24;7.90;99.90
15821;DHT22;8011;51.650;7.240;2023-01-09T13:07:55;8.00;99.90
15821;DHT22;8011;51.650;7.240;2023-01-09T13:10:31;8.00;99.90
15821;DHT22;8011;51.650;7.240;2023-01-09T13:13:01;7.90;99.90
15821;DHT22;8011;51.650;7.240;2023-01-09T13:15:40;8.00;99.90
15821;DHT22;8011;51.650;7.240;2023-01-09T13:20:52;8.00;99.90
15821;DHT22;8011;51.650;7.240;2023-01-09T13:26:43;7.90;99.90
15821;DHT22;8011;51.650;7.240;2023-01-09T13:29:25;7.90;99.90
15821;DHT22;8011;51.650;7.240;2023-01-09T13:34:37;7.90;99.90
15821;DHT22;8011;51.650;7.240;2023-01-09T13:37:03;7.90;99.90
15821;DHT22;8011;51.650;7.240;2023-01-09T13:39:33;7.90;99.90
15821;DHT22;8011;51.650;7.240;2023-01-09T13:42:17;7.90;99.90
15821;DHT22;8011;51.650;7.240;2023-01-09T13:45:23;7.90;99.90
15821;DHT22;8011;51.650;7.240;2023-01-09T13:50:43;7.90;99.90
15821;DHT22;8011;51.650;7.240;2023-01-09T13:58:25;7.90;99.90
15821;DHT22;8011;51.650;7.240;2023-01-09T14:00:56;7.90;99.90
15821;DHT22;8011;51.650;7.240;2023-01-09T14:03:42;7.90;99.90
15821;DHT22;8011;51.650;7.240;2023-01-09T14:06:11;7.90;99.90
15821;DHT22;8011;51.650;7.240;2023-01-09T14:08:39;7.90;99.90
15821;DHT22;8011;51.650;7.240;2023-01-09T14:11:06;7.90;99.90
15821;DHT22;8011;51.650;7.240;2023-01-09T14:13:38;7.90;99.90
15821;DHT22;8011;51.650;7.240;2023-01-09T14:16:18;7.90;99.90
15821;DHT22;8011;51.650;7.240;2023-01-09T14:21:24;7.90;99.90
15821;DHT22;8011;51.650;7.240;2023-01-09T14:24:02;7.80;99.90
15821;DHT22;8011;51.650;7.240;2023-01-09T14:26:46;7.90;99.90
15821;DHT22;8011;51.650;7.240;2023-01-09T14:37:35;7.90;99.90
15821;DHT22;8011;51.650;7.240;2023-01-09T14:40:20;7.80;99.90
15821;DHT22;8011;51.650;7.240;2023-01-09T14:42:52;7.80;99.90
15821;DHT22;8011;51.650;7.240;2023-01-09T14:45:24;7.90;99.90
15821;DHT22;8011;51.650;7.240;2023-01-09T14:47:59;7.90;99.90
15821;DHT22;8011;51.650;7.240;2023-01-09T14:50:54;8.00;99.90
15821;DHT22;8011;51.650;7.240;2023-01-09T14:53:28;7.90;99.90
15821;DHT22;8011;51.650;7.240;2023-01-09T14:56:01;7.90;99.90
15821;DHT22;8011;51.650;7.240;2023-01-09T14:58:37;7.90;99.90
15821;DHT22;8011;51.650;7.240;2023-01-09T15:03:54;7.90;99.90
15821;DHT22;8011;51.650;7.240;2023-01-09T15:06:26;7.90;99.90
15821;DHT22;8011;51.650;7.240;2023-01-09T15:09:00;7.90;99.90
15821;DHT22;8011;51.650;7.240;2023-01-09T15:11:28;7.90;99.90
15821;DHT22;8011;51.650;7.240;2023-01-09T15:13:55;7.90;99.90
15821;DHT22;8011;51.650;7.240;2023-01-09T15:16:28;7.80;99.90
15821;DHT22;8011;51.650;7.240;2023-01-09T15:19:02;7.80;99.90
15821;DHT22;8011;51.650;7.240;2023-01-09T15:21:30;7.70;99.90
15821;DHT22;8011;51.650;7.240;2023-01-09T15:24:21;7.70;99.90
15821;DHT22;8011;51.650;7.240;2023-01-09T15:26:55;7.80;99.90
15821;DHT22;8011;51.650;7.240;2023-01-09T15:29:21;7.80;99.90
15821;DHT22;8011;51.650;7.240;2023-01-09T15:31:52;7.80;99.90
15821;DHT22;8011;51.650;7.240;2023-01-09T15:34:21;7.70;99.90
15821;DHT22;8011;51.650;7.240;2023-01-09T15:36:48;7.70;99.90
15821;DHT22;8011;51.650;7.240;2023-01-09T15:39:35;7.70;99.90
15821;DHT22;8011;51.650;7.240;2023-01-09T15:42:01;7.70;99.90
15821;DHT22;8011;51.650;7.240;2023-01-09T15:44:49;7.70;99.90
15821;DHT22;8011;51.650;7.240;2023-01-09T15:47:24;7.60;99.90
15821;DHT22;8011;51.650;7.240;2023-01-09T15:49:54;7.60;99.90
15821;DHT22;8011;51.650;7.240;2023-01-09T15:52:21;7.60;99.90
15821;DHT22;8011;51.650;7.240;2023-01-09T15:54:47;7.60;99.90
15821;DHT22;8011;51.650;7.240;2023-01-09T15:59:56;7.60;99.90
15821;DHT22;8011;51.650;7.240;2023-01-09T16:02:23;7.60;99.90
15821;DHT22;8011;51.650;7.240;2023-01-09T16:05:16;7.50;99.90
15821;DHT22;8011;51.650;7.240;2023-01-09T16:07:47;7.60;99.90
15821;DHT22;8011;51.650;7.240;2023-01-09T16:10:29;7.60;99.90
15821;DHT22;8011;51.650;7.240;2023-01-09T16:12:56;7.60;99.90
15821;DHT22;8011;51.650;7.240;2023-01-09T16:15:22;7.60;99.90
15821;DHT22;8011;51.650;7.240;2023-01-09T16:18:37;7.60;99.90
15821;DHT22;8011;51.650;7.240;2023-01-09T16:21:22;7.60;99.90
15821;DHT22;8011;51.650;7.240;2023-01-09T16:23:56;7.60;99.90
15821;DHT22;8011;51.650;7.240;2023-01-09T16:26:24;7.60;99.90
15821;DHT22;8011;51.650;7.240;2023-01-09T16:28:51;7.60;99.90
15821;DHT22;8011;51.650;7.240;2023-01-09T16:33:56;7.50;99.90
15821;DHT22;8011;51.650;7.240;2023-01-09T16:36:22;7.60;99.90
15821;DHT22;8011;51.650;7.240;2023-01-09T16:38:52;7.50;99.90
15821;DHT22;8011;51.650;7.240;2023-01-09T16:41:20;7.60;99.90
15821;DHT22;8011;51.650;7.240;2023-01-09T16:44:05;7.60;99.90
15821;DHT22;8011;51.650;7.240;2023-01-09T16:46:43;7.50;99.90
15821;DHT22;8011;51.650;7.240;2023-01-09T16:49:19;7.50;99.90
15821;DHT22;8011;51.650;7.240;2023-01-09T16:51:46;7.50;99.90
15821;DHT22;8011;51.650;7.240;2023-01-09T16:54:12;7.50;99.90
15821;DHT22;8011;51.650;7.240;2023-01-09T16:56:39;7.50;99.90
15821;DHT22;8011;51.650;7.240;2023-01-09T16:59:13;7.50;99.90
15821;DHT22;8011;51.650;7.240;2023-01-09T17:01:39;7.50;99.90
15821;DHT22;8011;51.650;7.240;2023-01-09T17:04:13;7.50;99.90
15821;DHT22;8011;51.650;7.240;2023-01-09T17:06:40;7.50;99.90
15821;DHT22;8011;51.650;7.240;2023-01-09T17:09:10;7.40;99.90
15821;DHT22;8011;51.650;7.240;2023-01-09T17:11:36;7.40;99.90
15821;DHT22;8011;51.650;7.240;2023-01-09T17:14:04;7.40;99.90
15821;DHT22;8011;51.650;7.240;2023-01-09T17:16:29;7.40;99.90
15821;DHT22;8011;51.650;7.240;2023-01-09T17:18:55;7.40;99.90
15821;DHT22;8011;51.650;7.240;2023-01-09T17:21:23;7.50;99.90
15821;DHT22;8011;51.650;7.240;2023-01-09T17:23:49;7.50;99.90
15821;DHT22;8011;51.650;7.240;2023-01-09T17:26:37;7.40;99.90
15821;DHT22;8011;51.650;7.240;2023-01-09T17:29:22;7.40;99.90
15821;DHT22;8011;51.650;7.240;2023-01-09T17:31:48;7.40;99.90
15821;DHT22;8011;51.650;7.240;2023-01-09T17:34:14;7.40;99.90
15821;DHT22;8011;51.650;7.240;2023-01-09T17:36:39;7.40;99.90
15821;DHT22;8011;51.650;7.240;2023-01-09T17:39:05;7.50;99.90
15821;DHT22;8011;51.650;7.240;2023-01-09T17:41:31;7.40;99.90
15821;DHT22;8011;51.650;7.240;2023-01-09T17:43:58;7.40;99.90
15821;DHT22;8011;51.650;7.240;2023-01-09T17:46:35;7.40;99.90
15821;DHT22;8011;51.650;7.240;2023-01-09T17:49:03;7.40;99.90
15821;DHT22;8011;51.650;7.240;2023-01-09T17:51:29;7.30;99.90
15821;DHT22;8011;51.650;7.240;2023-01-09T17:53:55;7.30;99.90
15821;DHT22;8011;51.650;7.240;2023-01-09T17:56:28;7.30;99.90
15821;DHT22;8011;51.650;7.240;2023-01-09T17:58:54;7.20;99.90
15821;DHT22;8011;51.650;7.240;2023-01-09T18:01:20;7.20;99.90
15821;DHT22;8011;51.650;7.240;2023-01-09T18:03:47;7.20;99.90
15821;DHT22;8011;51.650;7.240;2023-01-09T18:06:14;7.20;99.90
15821;DHT22;8011;51.650;7.240;2023-01-09T18:08:41;7.20;99.90
15821;DHT22;8011;51.650;7.240;2023-01-09T18:11:12;7.20;99.90
15821;DHT22;8011;51.650;7.240;2023-01-09T18:13:39;7.20;99.90
15821;DHT22;8011;51.650;7.240;2023-01-09T18:16:12;7.20;99.90
15821;DHT22;8011;51.650;7.240;2023-01-09T18:18:38;7.10;99.90
15821;DHT22;8011;51.650;7.240;2023-01-09T18:21:07;7.10;99.90
15821;DHT22;8011;51.650;7.240;2023-01-09T18:23:34;7.00;99.90
15821;DHT22;8011;51.650;7.240;2023-01-09T18:26:07;7.00;99.90
15821;DHT22;8011;51.650;7.240;2023-01-09T18:28:37;7.00;99.90
15821;DHT22;8011;51.650;7.240;2023-01-09T18:31:03;7.00;99.90
15821;DHT22;8011;51.650;7.240;2023-01-09T18:33:29;7.00;99.90
15821;DHT22;8011;51.650;7.240;2023-01-09T18:35:55;7.00;99.90
15821;DHT22;8011;51.650;7.240;2023-01-09T18:38:20;7.00;99.90
15821;DHT22;8011;51.650;7.240;2023-01-09T18:40:46;6.90;99.90
15821;DHT22;8011;51.650;7.240;2023-01-09T18:43:12;6.90;99.90
15821;DHT22;8011;51.650;7.240;2023-01-09T18:45:42;6.90;99.90
15821;DHT22;8011;51.650;7.240;2023-01-09T18:48:09;7.00;99.90
15821;DHT22;8011;51.650;7.240;2023-01-09T18:50:36;6.90;99.90
15821;DHT22;8011;51.650;7.240;2023-01-09T18:53:01;6.90;99.90
15821;DHT22;8011;51.650;7.240;2023-01-09T18:55:27;6.80;99.90
15821;DHT22;8011;51.650;7.240;2023-01-09T18:57:54;6.90;99.90
15821;DHT22;8011;51.650;7.240;2023-01-09T19:00:20;6.90;99.90
15821;DHT22;8011;51.650;7.240;2023-01-09T19:02:46;6.90;99.90
15821;DHT22;8011;51.650;7.240;2023-01-09T19:05:11;6.90;99.90
15821;DHT22;8011;51.650;7.240;2023-01-09T19:07:37;6.90;99.90
15821;DHT22;8011;51.650;7.240;2023-01-09T19:10:03;6.80;99.90
15821;DHT22;8011;51.650;7.240;2023-01-09T19:12:29;6.80;99.90
15821;DHT22;8011;51.650;7.240;2023-01-09T19:14:55;6.80;99.90
15821;DHT22;8011;51.650;7.240;2023-01-09T19:17:20;6.90;99.90
15821;DHT22;8011;51.650;7.240;2023-01-09T19:19:46;6.90;99.90
15821;DHT22;8011;51.650;7.240;2023-01-09T19:22:12;6.80;99.90
15821;DHT22;8011;51.650;7.240;2023-01-09T19:24:39;6.90;99.90
15821;DHT22;8011;51.650;7.240;2023-01-09T19:27:05;6.80;99.90
15821;DHT22;8011;51.650;7.240;2023-01-09T19:29:31;6.80;99.90
15821;DHT22;8011;51.650;7.240;2023-01-09T19:31:57;6.80;99.90
15821;DHT22;8011;51.650;7.240;2023-01-09T19:34:23;6.80;99.90
15821;DHT22;8011;51.650;7.240;2023-01-09T19:36:49;6.90;99.90
15821;DHT22;8011;51.650;7.240;2023-01-09T19:39:15;6.90;99.90
15821;DHT22;8011;51.650;7.240;2023-01-09T19:41:41;6.80;99.90
15821;DHT22;8011;51.650;7.240;2023-01-09T19:44:07;6.90;99.90
15821;DHT22;8011;51.650;7.240;2023-01-09T19:46:33;6.80;99.90
15821;DHT22;8011;51.650;7.240;2023-01-09T19:48:59;6.80;99.90
15821;DHT22;8011;51.650;7.240;2023-01-09T19:51:30;6.90;99.90
15821;DHT22;8011;51.650;7.240;2023-01-09T19:53:57;6.90;99.90
15821;DHT22;8011;51.650;7.240;2023-01-09T19:56:26;6.90;99.90
15821;DHT22;8011;51.650;7.240;2023-01-09T19:59:01;6.90;99.90
15821;DHT22;8011;51.650;7.240;2023-01-09T20:01:32;6.90;99.90
15821;DHT22;8011;51.650;7.240;2023-01-09T20:04:00;6.90;99.90
15821;DHT22;8011;51.650;7.240;2023-01-09T20:06:33;6.90;99.90
15821;DHT22;8011;51.650;7.240;2023-01-09T20:09:02;6.90;99.90
15821;DHT22;8011;51.650;7.240;2023-01-09T20:11:29;6.90;99.90
15821;DHT22;8011;51.650;7.240;2023-01-09T20:13:56;6.90;99.90
15821;DHT22;8011;51.650;7.240;2023-01-09T20:16:23;7.00;99.90
15821;DHT22;8011;51.650;7.240;2023-01-09T20:18:53;7.00;99.90
15821;DHT22;8011;51.650;7.240;2023-01-09T20:21:21;7.00;99.90
15821;DHT22;8011;51.650;7.240;2023-01-09T20:23:53;7.00;99.90
15821;DHT22;8011;51.650;7.240;2023-01-09T20:26:19;7.00;99.90
15821;DHT22;8011;51.650;7.240;2023-01-09T20:28:46;7.00;99.90
15821;DHT22;8011;51.650;7.240;2023-01-09T20:31:14;7.10;99.90
15821;DHT22;8011;51.650;7.240;2023-01-09T20:33:41;7.00;99.90
15821;DHT22;8011;51.650;7.240;2023-01-09T20:36:07;7.00;99.90
15821;DHT22;8011;51.650;7.240;2023-01-09T20:38:36;7.10;99.90
15821;DHT22;8011;51.650;7.240;2023-01-09T20:41:09;7.10;99.90
15821;DHT22;8011;51.650;7.240;2023-01-09T20:43:36;7.10;99.90
15821;DHT22;8011;51.650;7.240;2023-01-09T20:46:06;7.10;99.90
15821;DHT22;8011;51.650;7.240;2023-01-09T20:48:32;7.10;99.90
15821;DHT22;8011;51.650;7.240;2023-01-09T20:51:06;7.10;99.90
15821;DHT22;8011;51.650;7.240;2023-01-09T20:53:33;7.10;99.90
15821;DHT22;8011;51.650;7.240;2023-01-09T20:56:06;7.20;99.90
15821;DHT22;8011;51.650;7.240;2023-01-09T20:58:35;7.10;99.90
15821;DHT22;8011;51.650;7.240;2023-01-09T21:01:09;7.10;99.90
15821;DHT22;8011;51.650;7.240;2023-01-09T21:03:35;7.10;99.90
15821;DHT22;8011;51.650;7.240;2023-01-09T21:06:09;7.00;99.90
15821;DHT22;8011;51.650;7.240;2023-01-09T21:08:35;7.10;99.90
15821;DHT22;8011;51.650;7.240;2023-01-09T21:11:01;7.00;99.90
15821;DHT22;8011;51.650;7.240;2023-01-09T21:13:27;7.10;99.90
15821;DHT22;8011;51.650;7.240;2023-01-09T21:15:53;7.10;99.90
15821;DHT22;8011;51.650;7.240;2023-01-09T21:18:23;7.10;99.90
15821;DHT22;8011;51.650;7.240;2023-01-09T21:20:49;7.10;99.90
15821;DHT22;8011;51.650;7.240;2023-01-09T21:23:15;7.10;99.90
15821;DHT22;8011;51.650;7.240;2023-01-09T21:25:40;7.10;99.90
15821;DHT22;8011;51.650;7.240;2023-01-09T21:28:11;7.10;99.90
15821;DHT22;8011;51.650;7.240;2023-01-09T21:30:39;7.00;99.90
15821;DHT22;8011;51.650;7.240;2023-01-09T21:33:04;7.00;99.90
15821;DHT22;8011;51.650;7.240;2023-01-09T21:35:30;7.00;99.90
15821;DHT22;8011;51.650;7.240;2023-01-09T21:37:57;6.90;99.90
15821;DHT22;8011;51.650;7.240;2023-01-09T21:40:22;6.90;99.90
15821;DHT22;8011;51.650;7.240;2023-01-09T21:42:48;7.00;99.90
15821;DHT22;8011;51.650;7.240;2023-01-09T21:45:32;7.00;99.90
15821;DHT22;8011;51.650;7.240;2023-01-09T21:48:16;6.90;99.90
15821;DHT22;8011;51.650;7.240;2023-01-09T21:50:42;7.00;99.90
15821;DHT22;8011;51.650;7.240;2023-01-09T21:53:08;6.90;99.90
15821;DHT22;8011;51.650;7.240;2023-01-09T21:55:34;7.00;99.90
15821;DHT22;8011;51.650;7.240;2023-01-09T21:58:00;7.00;99.90
15821;DHT22;8011;51.650;7.240;2023-01-09T22:00:26;6.90;99.90
15821;DHT22;8011;51.650;7.240;2023-01-09T22:02:53;6.90;99.90
15821;DHT22;8011;51.650;7.240;2023-01-09T22:05:19;7.00;99.90
15821;DHT22;8011;51.650;7.240;2023-01-09T22:07:45;6.90;99.90